createdAt,value
2022-11-19T00:01:26.942Z,13.10
2022-11-19T00:03:54.555Z,13.82
2022-11-19T00:06:27.629Z,13.95
2022-11-19T00:08:55.485Z,11.57
2022-11-19T00:11:46.354Z,13.38
2022-11-19T00:14:15.722Z,10.43
2022-11-19T00:16:46.701Z,15.50
2022-11-19T00:19:13.804Z,13.40
2022-11-19T00:21:40.787Z,13.07
2022-11-19T00:24:09.067Z,11.95
2022-11-19T00:26:35.975Z,10.75
2022-11-19T00:29:03.433Z,9.98
2022-11-19T00:31:30.185Z,12.02
2022-11-19T00:33:57.153Z,11.88
2022-11-19T00:36:23.986Z,11.77
2022-11-19T00:38:50.951Z,9.20
2022-11-19T00:41:18.318Z,10.95
2022-11-19T00:43:48.133Z,9.10
2022-11-19T00:46:26.329Z,8.27
2022-11-19T00:48:56.225Z,9.52
2022-11-19T00:51:26.244Z,10.75
2022-11-19T00:53:53.930Z,11.13
2022-11-19T00:56:24.161Z,9.07
2022-11-19T00:58:51.928Z,12.77
2022-11-19T01:01:21.721Z,10.57
2022-11-19T01:03:49.471Z,11.75
2022-11-19T01:06:19.749Z,13.77
2022-11-19T01:08:51.285Z,12.40
2022-11-19T01:11:25.771Z,14.13
2022-11-19T01:13:53.602Z,9.82
2022-11-19T01:16:29.320Z,7.18
2022-11-19T01:18:56.674Z,12.00
2022-11-19T01:21:27.061Z,10.80
2022-11-19T01:23:54.515Z,10.95
2022-11-19T01:26:21.672Z,12.23
2022-11-19T01:28:48.811Z,13.10
2022-11-19T01:31:19.977Z,14.25
2022-11-19T01:33:47.493Z,10.10
2022-11-19T01:36:19.763Z,11.32
2022-11-19T01:38:51.155Z,15.15
2022-11-19T01:41:25.142Z,10.43
2022-11-19T01:43:59.964Z,7.55
2022-11-19T01:46:33.094Z,11.77
2022-11-19T01:49:09.842Z,11.32
2022-11-19T01:51:59.193Z,11.95
2022-11-19T01:54:42.947Z,13.38
2022-11-19T01:57:17.138Z,11.10
2022-11-19T01:59:49.260Z,11.93
2022-11-19T02:02:19.711Z,11.55
2022-11-19T02:04:47.664Z,13.18
2022-11-19T02:07:14.518Z,17.50
2022-11-19T02:09:41.712Z,14.77
2022-11-19T02:12:23.107Z,12.73
2022-11-19T02:15:34.274Z,13.98
2022-11-19T02:18:03.840Z,19.27
2022-11-19T02:20:57.646Z,20.75
2022-11-19T02:24:10.812Z,12.45
2022-11-19T02:27:24.776Z,13.93
2022-11-19T02:30:13.697Z,15.02
2022-11-19T02:32:59.956Z,13.10
2022-11-19T02:35:42.533Z,15.40
2022-11-19T02:38:27.696Z,13.88
2022-11-19T02:41:31.018Z,13.63
2022-11-19T02:44:42.770Z,16.10
2022-11-19T02:47:15.451Z,16.30
2022-11-19T02:49:45.320Z,14.18
2022-11-19T02:52:16.885Z,11.52
2022-11-19T02:54:43.897Z,11.27
2022-11-19T02:57:13.019Z,13.45
2022-11-19T03:00:29.193Z,13.32
2022-11-19T03:03:36.692Z,19.75
2022-11-19T03:06:13.502Z,10.50
2022-11-19T03:08:40.743Z,13.82
2022-11-19T03:11:10.491Z,15.35
2022-11-19T03:14:07.935Z,12.05
2022-11-19T03:16:41.766Z,13.15
2022-11-19T03:19:34.079Z,13.63
2022-11-19T03:22:21.101Z,13.43
2022-11-19T03:25:02.714Z,14.48
2022-11-19T03:27:43.885Z,11.80
2022-11-19T03:30:13.243Z,12.63
2022-11-19T03:32:47.853Z,19.33
2022-11-19T03:35:29.708Z,9.32
2022-11-19T03:38:02.718Z,7.20
2022-11-19T03:40:32.552Z,13.73
2022-11-19T03:43:02.449Z,9.35
2022-11-19T03:45:38.492Z,15.20
2022-11-19T03:48:06.714Z,10.02
2022-11-19T03:50:58.538Z,16.85
2022-11-19T03:53:26.141Z,13.30
2022-11-19T03:56:04.513Z,15.95
2022-11-19T03:58:39.610Z,10.52
2022-11-19T04:01:06.781Z,11.55
2022-11-19T04:03:33.602Z,13.02
2022-11-19T04:06:00.757Z,16.08
2022-11-19T04:08:27.580Z,11.73
2022-11-19T04:10:54.395Z,12.63
2022-11-19T04:13:21.178Z,13.25
2022-11-19T04:15:47.934Z,16.85
2022-11-19T04:18:14.643Z,14.50
2022-11-19T04:20:44.321Z,13.15
2022-11-19T04:23:11.334Z,13.48
2022-11-19T04:25:38.110Z,17.73
2022-11-19T04:28:04.919Z,14.65
2022-11-19T04:30:31.662Z,16.85
2022-11-19T04:32:58.394Z,15.05
2022-11-19T04:35:25.176Z,21.52
2022-11-19T04:37:52.157Z,17.33
2022-11-19T04:40:18.891Z,14.95
2022-11-19T04:42:45.817Z,13.93
2022-11-19T04:45:12.811Z,17.60
2022-11-19T04:47:39.561Z,13.30
2022-11-19T04:50:07.499Z,14.15
2022-11-19T04:52:40.296Z,22.08
2022-11-19T04:55:08.298Z,13.52
2022-11-19T04:57:35.024Z,15.15
2022-11-19T05:00:02.008Z,23.23
2022-11-19T05:02:28.810Z,14.05
2022-11-19T05:04:55.543Z,13.63
2022-11-19T05:07:22.386Z,15.23
2022-11-19T05:09:49.276Z,15.60
2022-11-19T05:12:16.111Z,11.73
2022-11-19T05:14:43.006Z,10.13
2022-11-19T05:17:09.727Z,11.68
2022-11-19T05:19:36.560Z,13.80
2022-11-19T05:22:03.372Z,15.00
2022-11-19T05:24:30.093Z,16.23
2022-11-19T05:26:56.856Z,12.43
2022-11-19T05:29:23.580Z,17.88
2022-11-19T05:31:50.306Z,13.57
2022-11-19T05:34:17.083Z,12.18
2022-11-19T05:36:43.818Z,17.23
2022-11-19T05:39:10.548Z,12.30
2022-11-19T05:41:37.863Z,13.93
2022-11-19T05:44:05.038Z,16.63
2022-11-19T05:46:31.799Z,11.27
2022-11-19T05:48:58.707Z,12.27
2022-11-19T05:51:25.462Z,15.32
2022-11-19T05:53:52.263Z,16.27
2022-11-19T05:56:19.127Z,14.27
2022-11-19T05:58:45.855Z,13.48
2022-11-19T06:01:14.791Z,11.95
2022-11-19T06:03:41.853Z,12.30
2022-11-19T06:06:08.847Z,8.80
2022-11-19T06:08:35.599Z,13.10
2022-11-19T06:11:04.751Z,12.90
2022-11-19T06:13:31.505Z,13.57
2022-11-19T06:15:58.273Z,17.10
2022-11-19T06:18:25.006Z,15.60
2022-11-19T06:20:51.808Z,8.43
2022-11-19T06:23:18.586Z,16.10
2022-11-19T06:25:45.320Z,13.85
2022-11-19T06:28:12.049Z,16.58
2022-11-19T06:30:38.803Z,10.23
2022-11-19T06:33:05.528Z,20.40
2022-11-19T06:35:32.389Z,14.85
2022-11-19T06:37:59.146Z,10.18
2022-11-19T06:40:26.066Z,10.43
2022-11-19T06:42:52.813Z,13.55
2022-11-19T06:45:19.677Z,15.00
2022-11-19T06:47:49.272Z,11.80
2022-11-19T06:50:16.193Z,17.65
2022-11-19T06:52:43.064Z,14.20
2022-11-19T06:55:10.437Z,14.52
2022-11-19T06:57:37.379Z,14.68
2022-11-19T07:00:05.274Z,12.57
2022-11-19T07:02:32.100Z,13.80
2022-11-19T07:04:59.033Z,15.35
2022-11-19T07:07:25.798Z,14.13
2022-11-19T07:09:52.598Z,9.25
2022-11-19T07:12:19.316Z,14.32
2022-11-19T07:14:46.056Z,12.55
2022-11-19T07:17:12.819Z,13.77
2022-11-19T07:19:39.812Z,11.93
2022-11-19T07:22:06.694Z,18.75
2022-11-19T07:24:33.607Z,13.93
2022-11-19T07:27:00.339Z,14.07
2022-11-19T07:29:27.215Z,12.95
2022-11-19T07:31:54.229Z,15.60
2022-11-19T07:34:21.809Z,19.73
2022-11-19T07:36:50.485Z,18.15
2022-11-19T07:39:17.725Z,14.30
2022-11-19T07:42:03.405Z,17.65
2022-11-19T07:44:30.169Z,13.13
2022-11-19T07:46:57.083Z,13.50
2022-11-19T07:49:25.078Z,14.40
2022-11-19T07:51:53.373Z,12.27
2022-11-19T07:54:20.343Z,12.80
2022-11-19T07:56:47.099Z,14.48
2022-11-19T07:59:14.082Z,17.95
2022-11-19T08:01:40.871Z,15.38
2022-11-19T08:04:07.718Z,16.50
2022-11-19T08:06:34.904Z,12.52
2022-11-19T08:09:04.108Z,8.82
2022-11-19T08:11:31.778Z,8.80
2022-11-19T08:14:02.741Z,9.95
2022-11-19T08:16:48.708Z,11.73
2022-11-19T08:19:17.537Z,13.32
2022-11-19T08:21:46.914Z,11.68
2022-11-19T08:24:15.941Z,18.08
2022-11-19T08:26:43.860Z,16.55
2022-11-19T08:29:16.534Z,18.05
2022-11-19T08:31:46.512Z,12.45
2022-11-19T08:34:14.013Z,13.88
2022-11-19T08:36:40.945Z,12.43
2022-11-19T08:39:09.245Z,15.57
2022-11-19T08:41:54.850Z,11.20
2022-11-19T08:44:21.972Z,15.82
2022-11-19T08:46:50.675Z,8.38
2022-11-19T08:49:17.726Z,13.02
2022-11-19T08:51:44.514Z,12.15
2022-11-19T08:54:12.984Z,15.65
2022-11-19T08:56:39.748Z,8.32
2022-11-19T08:59:06.872Z,12.38
2022-11-19T09:01:33.611Z,22.50
2022-11-19T09:04:00.455Z,14.25
2022-11-19T09:06:27.801Z,16.77
2022-11-19T09:08:54.541Z,13.80
2022-11-19T09:11:22.951Z,11.20
2022-11-19T09:13:49.957Z,12.60
2022-11-19T09:16:17.421Z,15.07
2022-11-19T09:18:44.618Z,10.60
2022-11-19T09:21:12.242Z,18.30
2022-11-19T09:23:41.590Z,11.27
2022-11-19T09:26:17.970Z,12.93
2022-11-19T09:28:45.511Z,12.13
2022-11-19T09:31:16.884Z,12.05
2022-11-19T09:33:48.450Z,10.90
2022-11-19T09:36:15.571Z,15.70
2022-11-19T09:38:42.452Z,10.55
2022-11-19T09:41:22.054Z,15.60
2022-11-19T09:44:00.794Z,13.55
2022-11-19T09:47:14.468Z,14.38
2022-11-19T09:49:47.583Z,13.18
2022-11-19T09:52:20.161Z,18.20
2022-11-19T09:54:51.037Z,15.45
2022-11-19T09:57:42.495Z,19.67
2022-11-19T10:00:13.303Z,15.38
2022-11-19T10:02:40.459Z,10.32
2022-11-19T10:05:08.448Z,11.05
2022-11-19T10:07:49.796Z,16.15
2022-11-19T10:10:22.844Z,15.85
2022-11-19T10:13:13.024Z,16.27
2022-11-19T10:16:39.010Z,16.08
2022-11-19T10:19:24.659Z,17.97
2022-11-19T10:22:02.250Z,11.68
2022-11-19T10:24:41.457Z,17.98
2022-11-19T10:27:24.008Z,16.25
2022-11-19T10:29:55.331Z,17.10
2022-11-19T10:32:39.561Z,20.02
2022-11-19T10:35:31.843Z,22.45
2022-11-19T10:38:02.546Z,17.05
2022-11-19T10:40:41.820Z,26.40
2022-11-19T10:43:23.842Z,21.65
2022-11-19T10:45:51.047Z,22.55
2022-11-19T10:48:23.282Z,15.35
2022-11-19T10:50:56.065Z,22.55
2022-11-19T10:53:37.104Z,18.83
2022-11-19T10:56:14.605Z,26.48
2022-11-19T10:58:53.942Z,10.45
2022-11-19T11:01:35.243Z,17.00
2022-11-19T11:04:19.710Z,16.08
2022-11-19T11:07:06.980Z,15.70
2022-11-19T11:09:44.124Z,17.83
2022-11-19T11:12:38.826Z,17.45
2022-11-19T11:15:08.765Z,11.43
2022-11-19T11:17:36.709Z,27.88
2022-11-19T11:20:16.713Z,13.50
2022-11-19T11:22:46.001Z,16.42
2022-11-19T11:25:28.361Z,12.55
2022-11-19T11:28:18.483Z,19.23
2022-11-19T11:30:56.178Z,12.63
2022-11-19T11:33:56.063Z,8.45
2022-11-19T11:36:27.178Z,14.07
2022-11-19T11:38:58.516Z,13.35
2022-11-19T11:44:33.903Z,18.05
2022-11-19T11:47:20.677Z,17.30
2022-11-19T11:50:16.452Z,16.55
2022-11-19T11:55:36.162Z,16.10
2022-11-19T11:58:24.754Z,13.80
2022-11-19T12:00:56.183Z,15.77
2022-11-19T12:03:23.242Z,14.07
2022-11-19T12:06:05.417Z,13.40
2022-11-19T12:09:04.198Z,20.27
2022-11-19T12:11:55.313Z,17.00
2022-11-19T12:14:34.155Z,16.08
2022-11-19T12:17:18.934Z,10.93
2022-11-19T12:20:17.694Z,14.27
2022-11-19T12:22:58.634Z,11.60
2022-11-19T12:25:59.138Z,13.30
2022-11-19T12:29:20.829Z,13.82
2022-11-19T12:32:15.551Z,22.08
2022-11-19T12:35:04.830Z,17.25
2022-11-19T12:38:05.648Z,12.02
2022-11-19T12:41:13.061Z,17.60
2022-11-19T12:43:57.358Z,17.58
2022-11-19T12:46:55.508Z,20.17
2022-11-19T12:49:48.223Z,13.35
2022-11-19T12:52:33.027Z,16.75
2022-11-19T12:55:27.125Z,18.83
2022-11-19T12:58:25.755Z,21.50
2022-11-19T13:01:01.845Z,19.38
2022-11-19T13:03:48.456Z,12.65
2022-11-19T13:06:26.503Z,17.27
2022-11-19T13:09:03.689Z,20.08
2022-11-19T13:11:51.605Z,13.38
2022-11-19T13:14:58.202Z,13.77
2022-11-19T13:17:35.661Z,9.70
2022-11-19T13:20:08.281Z,16.10
2022-11-19T13:22:43.744Z,14.05
2022-11-19T13:25:27.981Z,15.68
2022-11-19T13:27:57.809Z,21.50
2022-11-19T13:30:26.978Z,10.45
2022-11-19T13:33:19.004Z,18.92
2022-11-19T13:35:54.735Z,16.85
2022-11-19T13:38:34.727Z,20.48
2022-11-19T13:41:07.337Z,14.05
2022-11-19T13:43:53.466Z,30.17
2022-11-19T13:46:40.995Z,16.20
2022-11-19T13:49:25.453Z,13.20
2022-11-19T13:52:05.430Z,10.27
2022-11-19T13:54:41.314Z,14.50
2022-11-19T13:57:09.922Z,11.93
2022-11-19T13:59:48.503Z,13.63
2022-11-19T14:02:39.685Z,15.15
2022-11-19T14:05:41.858Z,13.48
2022-11-19T14:08:46.816Z,15.70
2022-11-19T14:11:31.502Z,16.75
2022-11-19T14:14:30.156Z,21.38
2022-11-19T14:17:27.970Z,15.65
2022-11-19T14:20:16.269Z,21.25
2022-11-19T14:23:13.864Z,15.85
2022-11-19T14:26:07.387Z,18.33
2022-11-19T14:28:42.643Z,12.13
2022-11-19T14:31:09.620Z,14.50
2022-11-19T14:33:48.615Z,14.57
2022-11-19T14:36:38.302Z,14.55
2022-11-19T14:39:17.371Z,11.85
2022-11-19T14:41:45.605Z,12.07
2022-11-19T14:44:24.923Z,14.75
2022-11-19T14:46:51.802Z,10.77
2022-11-19T14:49:36.256Z,13.07
2022-11-19T14:52:03.364Z,8.27
2022-11-19T14:54:37.672Z,13.23
2022-11-19T14:57:23.933Z,13.95
2022-11-19T14:59:55.610Z,12.73
2022-11-19T15:02:46.263Z,10.85
2022-11-19T15:05:12.998Z,11.25
2022-11-19T15:07:48.925Z,15.70
2022-11-19T15:10:18.238Z,16.90
2022-11-19T15:12:44.909Z,20.23
2022-11-19T15:15:20.759Z,17.50
2022-11-19T15:18:12.165Z,24.10
2022-11-19T15:21:16.183Z,20.50
2022-11-19T15:24:13.620Z,19.50
2022-11-19T15:27:13.878Z,26.35
2022-11-19T15:29:49.653Z,13.82
2022-11-19T15:32:51.590Z,15.60
2022-11-19T15:35:55.131Z,14.68
2022-11-19T15:38:21.850Z,17.80
2022-11-19T15:40:52.774Z,17.40
2022-11-19T15:43:28.821Z,23.45
2022-11-19T15:46:11.870Z,21.08
2022-11-19T15:48:54.118Z,16.52
2022-11-19T15:51:22.460Z,18.92
2022-11-19T15:54:00.489Z,14.73
2022-11-19T15:56:32.355Z,24.90
2022-11-19T15:59:01.107Z,21.48
2022-11-19T16:01:29.439Z,23.05
2022-11-19T16:03:56.301Z,17.60
2022-11-19T16:06:27.470Z,18.52
2022-11-19T16:08:58.499Z,17.88
2022-11-19T16:11:48.553Z,19.02
2022-11-19T16:14:42.247Z,23.38
2022-11-19T16:17:34.926Z,18.70
2022-11-19T16:20:11.422Z,27.52
2022-11-19T16:22:49.350Z,22.70
2022-11-19T16:25:34.626Z,20.20
2022-11-19T16:30:44.211Z,22.98
2022-11-19T16:33:19.358Z,29.42
2022-11-19T16:35:52.349Z,28.17
2022-11-19T16:38:30.648Z,35.92
2022-11-19T16:41:16.458Z,39.45
2022-11-19T16:43:48.686Z,34.55
2022-11-19T16:46:20.843Z,39.65
2022-11-19T16:48:50.727Z,42.78
2022-11-19T16:51:34.263Z,29.30
2022-11-19T16:54:02.532Z,30.10
2022-11-19T16:56:47.870Z,27.73
2022-11-19T17:02:00.082Z,20.23
2022-11-19T17:04:31.919Z,17.23
2022-11-19T17:06:59.953Z,22.98
2022-11-19T17:09:45.412Z,26.33
2022-11-19T17:12:29.936Z,17.40
2022-11-19T17:15:07.890Z,16.00
2022-11-19T17:17:42.279Z,18.38
2022-11-19T17:20:32.336Z,21.48
2022-11-19T17:23:00.807Z,21.42
2022-11-19T17:25:28.112Z,26.80
2022-11-19T17:27:58.007Z,21.23
2022-11-19T17:30:26.839Z,27.27
2022-11-19T17:32:56.844Z,23.58
2022-11-19T17:35:47.483Z,23.98
2022-11-19T17:38:35.366Z,20.80
2022-11-19T17:41:05.249Z,21.27
2022-11-19T17:43:54.557Z,21.20
2022-11-19T17:46:22.853Z,20.58
2022-11-19T17:48:51.009Z,22.23
2022-11-19T17:51:24.507Z,20.17
2022-11-19T17:53:52.745Z,23.98
2022-11-19T17:56:25.832Z,20.58
2022-11-19T17:58:52.645Z,21.85
2022-11-19T18:01:19.859Z,24.05
2022-11-19T18:03:47.429Z,22.15
2022-11-19T18:06:17.569Z,22.75
2022-11-19T18:08:44.955Z,20.77
2022-11-19T18:11:17.672Z,18.33
2022-11-19T18:13:46.162Z,17.95
2022-11-19T18:16:19.717Z,19.10
2022-11-19T18:18:47.010Z,18.45
2022-11-19T18:21:17.134Z,22.17
2022-11-19T18:23:45.565Z,16.80
2022-11-19T18:26:18.612Z,22.58
2022-11-19T18:28:48.833Z,20.95
2022-11-19T18:31:28.226Z,20.08
2022-11-19T18:33:58.192Z,19.05
2022-11-19T18:36:25.844Z,22.35
2022-11-19T18:38:53.182Z,22.02
2022-11-19T18:41:20.631Z,25.17
2022-11-19T18:44:07.614Z,27.23
2022-11-19T18:46:34.481Z,32.30
2022-11-19T18:49:01.361Z,30.10
2022-11-19T18:51:30.905Z,25.40
2022-11-19T18:53:57.830Z,29.70
2022-11-19T18:56:24.624Z,45.10
2022-11-19T18:58:51.506Z,48.17
2022-11-19T19:01:18.996Z,46.22
2022-11-19T19:03:46.013Z,50.22
2022-11-19T19:06:12.886Z,51.20
2022-11-19T19:08:40.043Z,42.03
2022-11-19T19:11:26.980Z,46.17
2022-11-19T19:13:54.620Z,64.30
2022-11-19T19:16:22.625Z,48.72
2022-11-19T19:18:49.678Z,49.33
2022-11-19T19:21:20.216Z,43.10
2022-11-19T19:23:47.547Z,41.63
2022-11-19T19:26:17.000Z,38.63
2022-11-19T19:28:48.779Z,42.90
2022-11-19T19:31:17.947Z,34.50
2022-11-19T19:33:46.404Z,30.58
2022-11-19T19:36:14.546Z,32.47
2022-11-19T19:38:41.911Z,38.83
2022-11-19T19:41:15.426Z,37.75
2022-11-19T19:43:42.561Z,42.35
2022-11-19T19:46:16.434Z,36.92
2022-11-19T19:48:49.390Z,43.47
2022-11-19T19:51:17.462Z,34.58
2022-11-19T19:53:44.942Z,53.38
2022-11-19T19:56:15.958Z,34.17
2022-11-19T19:58:44.739Z,43.20
2022-11-19T20:01:16.713Z,36.95
2022-11-19T20:03:44.865Z,42.28
2022-11-19T20:06:14.824Z,40.95
2022-11-19T20:08:42.653Z,56.20
2022-11-19T20:11:24.724Z,46.22
2022-11-19T20:13:53.817Z,42.97
2022-11-19T20:16:24.536Z,45.40
2022-11-19T20:18:53.429Z,37.08
2022-11-19T20:21:28.679Z,38.55
2022-11-19T20:23:55.795Z,33.35
2022-11-19T20:26:31.980Z,33.65
2022-11-19T20:29:05.676Z,33.00
2022-11-19T20:31:34.449Z,31.00
2022-11-19T20:34:04.758Z,32.25
2022-11-19T20:36:35.407Z,34.13
2022-11-19T20:39:03.001Z,28.25
2022-11-19T20:41:48.373Z,29.65
2022-11-19T20:46:57.159Z,24.27
2022-11-19T20:49:27.383Z,28.42
2022-11-19T20:51:55.207Z,28.13
2022-11-19T20:54:23.869Z,27.02
2022-11-19T20:56:52.327Z,29.45
2022-11-19T20:59:19.869Z,34.72
2022-11-19T21:01:50.175Z,27.90
2022-11-19T21:04:17.945Z,26.48
2022-11-19T21:06:45.074Z,25.65
2022-11-19T21:09:12.202Z,24.70
2022-11-19T21:11:39.112Z,30.10
2022-11-19T21:14:07.420Z,26.63
2022-11-19T21:16:34.298Z,29.90
2022-11-19T21:19:01.218Z,20.63
2022-11-19T21:21:28.063Z,30.20
2022-11-19T21:23:55.647Z,31.02
2022-11-19T21:26:27.827Z,24.02
2022-11-19T21:28:58.479Z,21.48
2022-11-19T21:31:40.788Z,24.08
2022-11-19T21:34:17.863Z,20.23
2022-11-19T21:36:46.431Z,22.38
2022-11-19T21:39:16.775Z,27.05
2022-11-19T21:41:44.232Z,23.30
2022-11-19T21:44:13.317Z,22.88
2022-11-19T21:46:43.547Z,21.88
2022-11-19T21:49:10.442Z,23.70
2022-11-19T21:51:37.846Z,24.17
2022-11-19T21:54:04.870Z,25.08
2022-11-19T21:56:38.033Z,25.42
2022-11-19T21:59:06.870Z,16.52
2022-11-19T22:01:33.847Z,20.30
2022-11-19T22:04:00.617Z,22.65
2022-11-19T22:06:27.691Z,26.75
2022-11-19T22:08:54.822Z,32.75
2022-11-19T22:11:31.093Z,45.15
2022-11-19T22:14:09.293Z,23.25
2022-11-19T22:16:39.360Z,25.23
2022-11-19T22:19:07.249Z,29.92
2022-11-19T22:21:34.912Z,25.10
2022-11-19T22:24:01.991Z,24.88
2022-11-19T22:26:29.104Z,31.92
2022-11-19T22:28:56.194Z,20.17
2022-11-19T22:31:24.408Z,25.52
2022-11-19T22:33:52.277Z,28.88
2022-11-19T22:36:21.093Z,34.13
2022-11-19T22:38:48.559Z,30.27
2022-11-19T22:41:18.330Z,22.25
2022-11-19T22:43:46.124Z,21.45
2022-11-19T22:46:14.942Z,23.35
2022-11-19T22:48:42.201Z,25.55
2022-11-19T22:51:13.745Z,24.27
2022-11-19T22:53:41.449Z,27.60
2022-11-19T22:56:11.180Z,28.27
2022-11-19T22:58:38.808Z,30.98
2022-11-19T23:01:08.135Z,29.65
2022-11-19T23:03:35.257Z,27.55
2022-11-19T23:06:02.062Z,27.98
2022-11-19T23:08:29.135Z,31.90
2022-11-19T23:11:02.493Z,24.10
2022-11-19T23:13:31.992Z,31.55
2022-11-19T23:16:11.214Z,25.70
2022-11-19T23:18:46.660Z,20.85
2022-11-19T23:21:17.740Z,22.55
2022-11-19T23:23:44.921Z,21.27
2022-11-19T23:26:14.681Z,22.67
2022-11-19T23:28:42.246Z,17.90
2022-11-19T23:31:14.115Z,20.85
2022-11-19T23:33:42.938Z,21.23
2022-11-19T23:36:23.015Z,20.98
2022-11-19T23:38:50.282Z,21.20
2022-11-19T23:41:19.441Z,23.40
2022-11-19T23:43:47.014Z,23.02
2022-11-19T23:46:22.191Z,24.60
2022-11-19T23:48:50.314Z,23.85
2022-11-19T23:51:29.702Z,19.85
2022-11-19T23:53:57.226Z,21.88
2022-11-19T23:56:25.467Z,16.15
2022-11-19T23:58:52.862Z,15.68
